createdAt,value
2023-04-14T00:00:06.728Z,89.01
2023-04-14T00:01:06.709Z,88.90
2023-04-14T00:02:06.772Z,88.80
2023-04-14T00:03:06.940Z,88.90
2023-04-14T00:04:06.775Z,88.90
2023-04-14T00:05:06.730Z,88.80
2023-04-14T00:06:06.658Z,88.90
2023-04-14T00:07:06.645Z,88.90
2023-04-14T00:08:06.644Z,88.90
2023-04-14T00:09:06.629Z,88.64
2023-04-14T00:10:06.605Z,88.43
2023-04-14T00:11:06.560Z,88.64
2023-04-14T00:12:06.567Z,88.94
2023-04-14T00:13:06.578Z,88.98
2023-04-14T00:14:06.551Z,88.78
2023-04-14T00:15:06.535Z,88.67
2023-04-14T00:16:06.517Z,88.46
2023-04-14T00:17:06.500Z,88.46
2023-04-14T00:18:06.583Z,88.46
2023-04-14T00:19:06.587Z,88.78
2023-04-14T00:20:06.468Z,88.78
2023-04-14T00:21:06.498Z,88.67
2023-04-14T00:22:06.439Z,88.40
2023-04-14T00:23:06.450Z,88.20
2023-04-14T00:24:06.437Z,88.40
2023-04-14T00:25:06.424Z,88.71
2023-04-14T00:26:06.442Z,89.03
2023-04-14T00:27:06.368Z,89.34
2023-04-14T00:28:06.586Z,89.44
2023-04-14T00:29:06.414Z,89.34
2023-04-14T00:30:06.383Z,89.23
2023-04-14T00:31:06.325Z,89.13
2023-04-14T00:32:06.333Z,89.13
2023-04-14T00:33:06.303Z,88.82
2023-04-14T00:34:06.290Z,88.82
2023-04-14T00:35:06.268Z,89.03
2023-04-14T00:36:06.264Z,89.13
2023-04-14T00:37:06.236Z,89.23
2023-04-14T00:38:06.241Z,89.13
2023-04-14T00:39:06.224Z,88.92
2023-04-14T00:40:06.207Z,88.65
2023-04-14T00:41:06.222Z,88.65
2023-04-14T00:42:06.170Z,88.76
2023-04-14T00:43:06.176Z,89.07
2023-04-14T00:44:06.145Z,89.28
2023-04-14T00:45:06.140Z,89.28
2023-04-14T00:46:06.200Z,89.38
2023-04-14T00:47:06.112Z,89.28
2023-04-14T00:48:06.122Z,89.00
2023-04-14T00:49:06.111Z,89.00
2023-04-14T00:50:06.093Z,89.21
2023-04-14T00:51:06.105Z,89.31
2023-04-14T00:52:06.066Z,89.52
2023-04-14T00:53:06.115Z,89.73
2023-04-14T00:54:06.042Z,90.04
2023-04-14T00:55:06.052Z,90.14
2023-04-14T00:56:06.006Z,90.14
2023-04-14T00:57:06.004Z,90.04
2023-04-14T00:58:06.064Z,90.14
2023-04-14T00:59:05.979Z,90.10
2023-04-14T01:00:06.023Z,90.20
2023-04-14T01:01:05.920Z,90.20
2023-04-14T01:02:05.965Z,90.20
2023-04-14T01:03:06.001Z,90.10
2023-04-14T01:04:05.984Z,90.00
2023-04-14T01:05:06.021Z,90.00
2023-04-14T01:06:05.862Z,89.89
2023-04-14T01:07:05.835Z,89.89
2023-04-14T01:08:05.849Z,89.69
2023-04-14T01:09:05.828Z,89.48
2023-04-14T01:10:05.881Z,89.17
2023-04-14T01:11:05.794Z,88.86
2023-04-14T01:12:05.779Z,88.65
2023-04-14T01:13:05.774Z,88.45
2023-04-14T01:14:05.766Z,88.39
2023-04-14T01:15:05.829Z,88.69
2023-04-14T01:16:05.849Z,88.90
2023-04-14T01:17:05.770Z,89.15
2023-04-14T01:18:05.819Z,89.15
2023-04-14T01:19:05.776Z,89.15
2023-04-14T01:20:05.740Z,89.25
2023-04-14T01:21:05.680Z,89.46
2023-04-14T01:22:05.724Z,89.67
2023-04-14T01:23:05.701Z,89.77
2023-04-14T01:24:05.715Z,89.77
2023-04-14T01:25:05.687Z,89.77
2023-04-14T01:26:05.682Z,89.77
2023-04-14T01:27:05.672Z,89.67
2023-04-14T01:28:05.656Z,89.67
2023-04-14T01:29:05.653Z,89.56
2023-04-14T01:30:05.655Z,89.25
2023-04-14T01:31:05.699Z,89.25
2023-04-14T01:32:05.556Z,89.25
2023-04-14T01:33:05.544Z,89.04
2023-04-14T01:34:05.510Z,89.09
2023-04-14T01:35:05.689Z,89.19
2023-04-14T01:36:05.457Z,89.40
2023-04-14T01:37:05.452Z,89.61
2023-04-14T01:38:05.433Z,89.71
2023-04-14T01:39:05.441Z,89.81
2023-04-14T01:40:05.423Z,89.92
2023-04-14T01:41:05.389Z,89.92
2023-04-14T01:42:05.391Z,89.87
2023-04-14T01:43:05.365Z,89.77
2023-04-14T01:44:05.368Z,89.67
2023-04-14T01:45:05.355Z,89.56
2023-04-14T01:46:05.441Z,89.56
2023-04-14T01:47:05.351Z,89.46
2023-04-14T01:48:05.361Z,89.46
2023-04-14T01:49:05.310Z,89.40
2023-04-14T01:50:05.286Z,89.61
2023-04-14T01:51:05.267Z,89.81
2023-04-14T01:52:05.248Z,89.81
2023-04-14T01:53:05.278Z,89.81
2023-04-14T01:54:05.242Z,89.81
2023-04-14T01:55:05.209Z,89.71
2023-04-14T01:56:05.223Z,89.40
2023-04-14T01:57:05.175Z,89.29
2023-04-14T01:58:05.191Z,89.29
2023-04-14T01:59:05.152Z,89.19
2023-04-14T02:00:05.147Z,89.19
2023-04-14T02:01:05.235Z,89.09
2023-04-14T02:02:05.184Z,88.98
2023-04-14T02:03:05.234Z,89.09
2023-04-14T02:04:05.261Z,89.19
2023-04-14T02:05:05.174Z,89.19
2023-04-14T02:06:05.160Z,89.19
2023-04-14T02:07:05.111Z,89.19
2023-04-14T02:08:05.128Z,89.29
2023-04-14T02:09:05.125Z,89.40
2023-04-14T02:10:05.200Z,89.50
2023-04-14T02:11:05.172Z,89.50
2023-04-14T02:12:05.101Z,89.40
2023-04-14T02:13:05.100Z,89.29
2023-04-14T02:14:05.008Z,89.09
2023-04-14T02:15:05.100Z,89.23
2023-04-14T02:16:04.946Z,89.23
2023-04-14T02:17:04.984Z,89.34
2023-04-14T02:18:04.928Z,89.23
2023-04-14T02:19:04.935Z,89.13
2023-04-14T02:20:04.861Z,89.13
2023-04-14T02:21:04.857Z,88.71
2023-04-14T02:22:04.851Z,88.61
2023-04-14T02:23:04.832Z,88.61
2023-04-14T02:24:04.849Z,88.75
2023-04-14T02:25:04.814Z,88.85
2023-04-14T02:26:04.815Z,88.96
2023-04-14T02:27:04.782Z,88.65
2023-04-14T02:28:04.766Z,88.75
2023-04-14T02:29:04.789Z,88.85
2023-04-14T02:30:04.731Z,88.96
2023-04-14T02:31:04.738Z,89.17
2023-04-14T02:32:04.722Z,89.37
2023-04-14T02:33:04.815Z,89.58
2023-04-14T02:34:04.686Z,89.79
2023-04-14T02:35:04.811Z,89.89
2023-04-14T02:36:04.730Z,89.79
2023-04-14T02:37:04.641Z,89.69
2023-04-14T02:38:04.629Z,89.37
2023-04-14T02:39:04.639Z,89.17
2023-04-14T02:40:04.836Z,89.17
2023-04-14T02:41:04.605Z,89.17
2023-04-14T02:42:04.620Z,89.17
2023-04-14T02:43:04.602Z,89.06
2023-04-14T02:44:04.667Z,88.96
2023-04-14T02:45:04.534Z,88.75
2023-04-14T02:46:04.680Z,88.65
2023-04-14T02:47:04.520Z,88.85
2023-04-14T02:48:04.536Z,89.06
2023-04-14T02:49:04.663Z,89.06
2023-04-14T02:50:04.574Z,89.06
2023-04-14T02:51:04.471Z,89.00
2023-04-14T02:52:04.440Z,88.79
2023-04-14T02:53:04.436Z,88.79
2023-04-14T02:54:04.447Z,88.90
2023-04-14T02:55:04.403Z,89.00
2023-04-14T02:56:04.399Z,89.11
2023-04-14T02:57:04.398Z,89.11
2023-04-14T02:58:04.365Z,89.00
2023-04-14T02:59:04.363Z,89.11
2023-04-14T03:00:04.360Z,89.21
2023-04-14T03:01:04.406Z,88.90
2023-04-14T03:02:04.518Z,88.69
2023-04-14T03:03:04.454Z,88.69
2023-04-14T03:04:04.316Z,88.59
2023-04-14T03:05:04.275Z,88.59
2023-04-14T03:06:04.289Z,88.79
2023-04-14T03:07:04.275Z,89.00
2023-04-14T03:08:04.227Z,89.11
2023-04-14T03:09:04.244Z,89.21
2023-04-14T03:10:04.208Z,89.42
2023-04-14T03:11:04.197Z,89.42
2023-04-14T03:12:04.191Z,89.42
2023-04-14T03:13:04.361Z,89.21
2023-04-14T03:14:04.149Z,88.90
2023-04-14T03:15:04.186Z,88.90
2023-04-14T03:16:04.217Z,89.00
2023-04-14T03:17:04.141Z,89.11
2023-04-14T03:18:04.257Z,89.11
2023-04-14T03:19:04.086Z,89.31
2023-04-14T03:20:04.085Z,89.62
2023-04-14T03:21:04.058Z,89.62
2023-04-14T03:22:04.033Z,89.62
2023-04-14T03:23:04.025Z,89.62
2023-04-14T03:24:04.010Z,89.62
2023-04-14T03:25:04.023Z,89.73
2023-04-14T03:26:03.992Z,89.94
2023-04-14T03:27:03.989Z,89.83
2023-04-14T03:28:03.963Z,89.79
2023-04-14T03:29:04.016Z,89.79
2023-04-14T03:30:03.994Z,89.79
2023-04-14T03:31:03.989Z,89.79
2023-04-14T03:32:03.912Z,89.79
2023-04-14T03:33:03.993Z,89.89
2023-04-14T03:34:04.040Z,89.89
2023-04-14T03:35:03.920Z,89.79
2023-04-14T03:36:03.919Z,89.79
2023-04-14T03:37:03.878Z,89.89
2023-04-14T03:38:03.850Z,89.89
2023-04-14T03:39:03.850Z,89.89
2023-04-14T03:40:03.823Z,89.79
2023-04-14T03:41:03.794Z,89.69
2023-04-14T03:42:03.813Z,89.69
2023-04-14T03:43:03.764Z,89.69
2023-04-14T03:44:03.761Z,89.58
2023-04-14T03:45:03.764Z,89.48
2023-04-14T03:46:03.831Z,89.27
2023-04-14T03:47:03.904Z,89.37
2023-04-14T03:48:03.765Z,89.58
2023-04-14T03:49:03.682Z,89.69
2023-04-14T03:50:03.685Z,89.58
2023-04-14T03:51:03.677Z,89.58
2023-04-14T03:52:03.638Z,89.58
2023-04-14T03:53:03.630Z,89.58
2023-04-14T03:54:03.625Z,89.48
2023-04-14T03:55:03.641Z,89.48
2023-04-14T03:56:03.590Z,89.58
2023-04-14T03:57:03.569Z,89.58
2023-04-14T03:58:03.559Z,89.69
2023-04-14T03:59:03.553Z,89.79
2023-04-14T04:00:03.583Z,89.79
2023-04-14T04:01:03.534Z,89.69
2023-04-14T04:02:03.589Z,89.54
2023-04-14T04:03:03.701Z,89.37
2023-04-14T04:04:03.557Z,89.27
2023-04-14T04:05:03.526Z,89.37
2023-04-14T04:06:03.453Z,89.27
2023-04-14T04:07:03.477Z,89.17
2023-04-14T04:08:03.456Z,89.17
2023-04-14T04:09:03.542Z,89.27
2023-04-14T04:10:03.429Z,89.27
2023-04-14T04:11:03.397Z,89.06
2023-04-14T04:12:03.405Z,88.85
2023-04-14T04:13:03.366Z,88.85
2023-04-14T04:14:03.363Z,88.96
2023-04-14T04:15:03.372Z,88.96
2023-04-14T04:16:03.441Z,88.96
2023-04-14T04:17:03.411Z,88.96
2023-04-14T04:18:03.361Z,88.96
2023-04-14T04:19:03.320Z,88.96
2023-04-14T04:20:03.372Z,89.06
2023-04-14T04:21:03.263Z,89.00
2023-04-14T04:22:03.243Z,88.90
2023-04-14T04:23:03.237Z,89.21
2023-04-14T04:24:03.226Z,89.31
2023-04-14T04:25:03.244Z,89.52
2023-04-14T04:26:03.200Z,89.73
2023-04-14T04:27:03.183Z,89.83
2023-04-14T04:28:03.162Z,90.04
2023-04-14T04:29:03.375Z,90.25
2023-04-14T04:30:03.145Z,90.35
2023-04-14T04:31:03.130Z,90.45
2023-04-14T04:32:03.161Z,90.56
2023-04-14T04:33:03.169Z,90.56
2023-04-14T04:34:03.124Z,90.66
2023-04-14T04:35:03.070Z,90.45
2023-04-14T04:36:03.082Z,90.45
2023-04-14T04:37:03.054Z,90.45
2023-04-14T04:38:03.028Z,90.45
2023-04-14T04:39:03.264Z,90.45
2023-04-14T04:40:10.229Z,90.66
2023-04-14T04:41:03.010Z,90.97
2023-04-14T04:42:03.026Z,91.39
2023-04-14T04:43:02.980Z,91.66
2023-04-14T04:44:02.951Z,91.66
2023-04-14T04:45:02.980Z,91.66
2023-04-14T04:46:02.964Z,91.62
2023-04-14T04:47:02.923Z,91.31
2023-04-14T04:48:02.996Z,91.00
2023-04-14T04:49:03.323Z,90.79
2023-04-14T04:50:02.882Z,90.69
2023-04-14T04:51:02.872Z,90.93
2023-04-14T04:52:02.842Z,91.24
2023-04-14T04:53:05.654Z,91.66
2023-04-14T04:54:02.920Z,92.18
2023-04-14T04:55:02.866Z,92.53
2023-04-14T04:56:02.813Z,92.84
2023-04-14T04:57:02.783Z,93.05
2023-04-14T04:58:02.765Z,93.37
2023-04-14T04:59:02.943Z,93.47
2023-04-14T05:00:02.766Z,93.57
2023-04-14T05:01:02.768Z,93.78
2023-04-14T05:02:02.807Z,93.99
2023-04-14T05:03:02.848Z,94.09
2023-04-14T05:04:02.698Z,94.20
2023-04-14T05:05:03.928Z,94.26
2023-04-14T05:06:02.662Z,94.36
2023-04-14T05:07:02.642Z,94.46
2023-04-14T05:08:02.637Z,94.57
2023-04-14T05:09:03.003Z,94.67
2023-04-14T05:10:02.656Z,94.67
2023-04-14T05:11:02.580Z,94.67
2023-04-14T05:12:02.573Z,94.67
2023-04-14T05:13:02.710Z,94.67
2023-04-14T05:14:02.556Z,94.57
2023-04-14T05:15:02.556Z,94.46
2023-04-14T05:16:02.724Z,94.36
2023-04-14T05:17:02.701Z,94.15
2023-04-14T05:18:02.778Z,94.01
2023-04-14T05:19:02.891Z,93.80
2023-04-14T05:20:02.482Z,93.70
2023-04-14T05:21:02.491Z,93.70
2023-04-14T05:22:02.453Z,93.59
2023-04-14T05:23:02.438Z,93.49
2023-04-14T05:24:02.428Z,93.38
2023-04-14T05:25:02.436Z,93.18
2023-04-14T05:26:22.283Z,93.07
2023-04-14T05:27:13.848Z,92.97
2023-04-14T05:28:03.374Z,93.07
2023-04-14T05:29:02.561Z,93.18
2023-04-14T05:30:02.404Z,93.28
2023-04-14T05:31:02.370Z,93.38
2023-04-14T05:32:02.348Z,93.49
2023-04-14T05:33:02.345Z,93.49
2023-04-14T05:34:02.728Z,93.53
2023-04-14T05:35:02.321Z,93.49
2023-04-14T05:36:02.452Z,93.53
2023-04-14T05:37:02.262Z,93.63
2023-04-14T05:38:02.238Z,93.84
2023-04-14T05:39:02.253Z,93.84
2023-04-14T05:40:02.230Z,93.84
2023-04-14T05:41:02.261Z,94.15
2023-04-14T05:42:02.190Z,94.26
2023-04-14T05:43:02.252Z,94.46
2023-04-14T05:44:02.350Z,94.67
2023-04-14T05:45:02.184Z,94.88
2023-04-14T05:46:02.134Z,94.88
2023-04-14T05:47:02.270Z,94.88
2023-04-14T05:48:02.211Z,94.78
2023-04-14T05:49:02.254Z,94.46
2023-04-14T05:50:02.114Z,94.36
2023-04-14T05:51:02.114Z,94.15
2023-04-14T05:52:02.071Z,94.15
2023-04-14T05:53:02.047Z,94.15
2023-04-14T05:54:02.437Z,94.15
2023-04-14T05:55:02.047Z,94.05
2023-04-14T05:56:01.996Z,93.95
2023-04-14T05:57:01.991Z,93.84
2023-04-14T05:58:02.042Z,93.95
2023-04-14T05:59:01.962Z,93.74
2023-04-14T06:00:01.971Z,93.63
2023-04-14T06:01:01.940Z,93.74
2023-04-14T06:02:02.011Z,93.84
2023-04-14T06:03:02.127Z,93.74
2023-04-14T06:04:02.522Z,93.74
2023-04-14T06:05:02.011Z,93.74
2023-04-14T06:06:01.874Z,93.84
2023-04-14T06:07:01.862Z,93.95
2023-04-14T06:08:01.843Z,93.95
2023-04-14T06:09:02.149Z,93.90
2023-04-14T06:10:01.834Z,93.80
2023-04-14T06:11:01.836Z,93.80
2023-04-14T06:12:01.817Z,93.80
2023-04-14T06:13:01.772Z,93.38
2023-04-14T06:14:02.166Z,93.07
2023-04-14T06:15:01.783Z,92.90
2023-04-14T06:16:01.869Z,92.90
2023-04-14T06:17:01.733Z,93.01
2023-04-14T06:18:01.847Z,93.22
2023-04-14T06:19:02.012Z,93.32
2023-04-14T06:20:01.733Z,93.49
2023-04-14T06:21:01.671Z,93.49
2023-04-14T06:22:01.656Z,93.38
2023-04-14T06:23:01.646Z,93.07
2023-04-14T06:24:01.671Z,92.80
2023-04-14T06:25:01.657Z,92.59
2023-04-14T06:26:01.613Z,92.59
2023-04-14T06:27:01.631Z,92.69
2023-04-14T06:28:01.572Z,93.01
2023-04-14T06:29:01.890Z,93.22
2023-04-14T06:30:01.603Z,93.43
2023-04-14T06:31:01.535Z,93.53
2023-04-14T06:32:01.617Z,93.43
2023-04-14T06:33:01.574Z,93.47
2023-04-14T06:34:01.506Z,93.68
2023-04-14T06:35:01.503Z,94.09
2023-04-14T06:36:01.475Z,94.46
2023-04-14T06:37:01.458Z,94.78
2023-04-14T06:38:01.450Z,94.67
2023-04-14T06:39:01.777Z,94.57
2023-04-14T06:40:01.451Z,94.36
2023-04-14T06:41:01.405Z,94.21
2023-04-14T06:42:01.553Z,94.01
2023-04-14T06:43:01.434Z,93.80
2023-04-14T06:44:01.365Z,93.59
2023-04-14T06:45:01.373Z,93.54
2023-04-14T06:46:01.389Z,93.65
2023-04-14T06:47:01.352Z,93.54
2023-04-14T06:48:01.391Z,93.23
2023-04-14T06:49:01.435Z,92.72
2023-04-14T06:50:01.326Z,92.72
2023-04-14T06:51:01.290Z,92.82
2023-04-14T06:52:01.274Z,93.02
2023-04-14T06:53:01.283Z,93.29
2023-04-14T06:54:01.514Z,93.50
2023-04-14T06:55:01.316Z,93.50
2023-04-14T06:56:01.214Z,93.50
2023-04-14T06:57:01.388Z,93.50
2023-04-14T06:58:01.196Z,93.46
2023-04-14T06:59:01.177Z,93.15
2023-04-14T07:00:01.189Z,92.84
2023-04-14T07:01:01.161Z,92.43
2023-04-14T07:02:01.247Z,91.80
2023-04-14T07:03:01.231Z,91.28
2023-04-14T07:04:01.289Z,91.14
2023-04-14T07:05:01.148Z,91.08
2023-04-14T07:06:01.102Z,90.87
2023-04-14T07:07:01.063Z,90.97
2023-04-14T07:08:01.073Z,91.28
2023-04-14T07:09:01.055Z,91.60
2023-04-14T07:10:01.137Z,91.76
2023-04-14T07:11:01.019Z,91.86
2023-04-14T07:12:01.003Z,91.66
2023-04-14T07:13:01.001Z,91.45
2023-04-14T07:14:01.164Z,91.45
2023-04-14T07:15:01.038Z,91.35
2023-04-14T07:16:01.000Z,91.24
2023-04-14T07:17:00.945Z,91.24
2023-04-14T07:18:00.972Z,91.14
2023-04-14T07:19:00.928Z,90.93
2023-04-14T07:20:00.940Z,91.03
2023-04-14T07:21:00.878Z,91.24
2023-04-14T07:22:00.861Z,91.24
2023-04-14T07:23:00.839Z,91.14
2023-04-14T07:24:01.039Z,90.99
2023-04-14T07:25:00.854Z,91.03
2023-04-14T07:26:00.819Z,91.09
2023-04-14T07:27:00.792Z,91.14
2023-04-14T07:28:03.548Z,91.14
2023-04-14T07:29:00.759Z,91.35
2023-04-14T07:30:00.777Z,91.61
2023-04-14T07:31:00.789Z,91.72
2023-04-14T07:32:00.733Z,91.72
2023-04-14T07:33:00.783Z,91.72
2023-04-14T07:34:00.877Z,91.51
2023-04-14T07:35:00.741Z,91.41
2023-04-14T07:36:03.577Z,91.41
2023-04-14T07:37:00.647Z,91.20
2023-04-14T07:38:00.669Z,91.09
2023-04-14T07:39:00.632Z,90.95
2023-04-14T07:40:00.638Z,90.95
2023-04-14T07:41:00.608Z,91.16
2023-04-14T07:42:00.592Z,90.84
2023-04-14T07:43:00.579Z,90.44
2023-04-14T07:44:00.811Z,90.44
2023-04-14T07:45:00.602Z,90.64
2023-04-14T07:46:00.570Z,90.84
2023-04-14T07:47:00.537Z,90.95
2023-04-14T07:48:00.651Z,91.05
2023-04-14T07:49:00.502Z,91.01
2023-04-14T07:50:00.519Z,90.80
2023-04-14T07:51:00.475Z,90.70
2023-04-14T07:52:00.462Z,91.01
2023-04-14T07:53:00.452Z,90.39
2023-04-14T07:54:00.669Z,89.77
2023-04-14T07:55:00.438Z,89.46
2023-04-14T07:56:00.493Z,89.77
2023-04-14T07:57:00.496Z,90.19
2023-04-14T07:58:00.387Z,89.77
2023-04-14T07:59:00.685Z,89.36
2023-04-14T08:00:00.415Z,89.46
2023-04-14T08:01:00.349Z,89.87
2023-04-14T08:02:00.430Z,90.39
2023-04-14T08:03:00.518Z,90.80
2023-04-14T08:04:00.550Z,91.17
2023-04-14T08:05:00.357Z,91.28
2023-04-14T08:06:00.287Z,91.17
2023-04-14T08:07:00.264Z,91.07
2023-04-14T08:08:00.257Z,90.87
2023-04-14T08:09:00.636Z,90.62
2023-04-14T08:10:00.231Z,90.62
2023-04-14T08:11:00.244Z,91.03
2023-04-14T08:12:00.202Z,91.13
2023-04-14T08:13:02.317Z,90.93
2023-04-14T08:14:00.176Z,90.78
2023-04-14T08:15:00.172Z,90.78
2023-04-14T08:16:00.205Z,90.68
2023-04-14T08:17:00.139Z,90.64
2023-04-14T08:18:00.207Z,90.43
2023-04-14T08:19:00.452Z,90.12
2023-04-14T08:20:00.098Z,89.81
2023-04-14T08:21:00.103Z,89.71
2023-04-14T08:22:00.076Z,89.81
2023-04-14T08:23:00.049Z,89.98
2023-04-14T08:24:00.070Z,89.67
2023-04-14T08:25:00.098Z,89.36
2023-04-14T08:26:00.034Z,88.95
2023-04-14T08:26:59.994Z,88.89
2023-04-14T08:28:00.002Z,89.25
2023-04-14T08:29:00.316Z,90.08
2023-04-14T08:30:00.010Z,90.28
2023-04-14T08:30:59.968Z,90.28
2023-04-14T08:31:59.963Z,90.49
2023-04-14T08:32:59.936Z,90.28
2023-04-14T08:33:59.905Z,90.08
2023-04-14T08:35:37.566Z,89.83
2023-04-14T08:36:01.056Z,89.32
2023-04-14T08:36:59.867Z,88.84
2023-04-14T08:37:59.868Z,88.90
2023-04-14T08:39:00.169Z,89.01
2023-04-14T08:39:59.857Z,88.70
2023-04-14T08:40:59.830Z,88.90
2023-04-14T08:41:59.848Z,89.01
2023-04-14T08:42:59.784Z,89.42
2023-04-14T08:43:59.781Z,89.69
2023-04-14T08:44:59.769Z,89.69
2023-04-14T08:45:59.786Z,89.79
2023-04-14T08:46:59.734Z,89.75
2023-04-14T08:47:59.826Z,89.65
2023-04-14T08:48:59.882Z,89.54
2023-04-14T08:49:59.704Z,89.09
2023-04-14T08:50:59.752Z,88.57
2023-04-14T08:51:59.676Z,88.17
2023-04-14T08:52:59.656Z,87.96
2023-04-14T08:53:59.999Z,87.65
2023-04-14T08:54:59.634Z,86.61
2023-04-14T08:55:59.649Z,86.31
2023-04-14T08:56:59.611Z,86.41
2023-04-14T08:57:59.602Z,86.31
2023-04-14T08:58:59.583Z,86.21
2023-04-14T08:59:59.579Z,86.31
2023-04-14T09:00:59.624Z,86.79
2023-04-14T09:01:59.742Z,86.99
2023-04-14T09:02:59.654Z,87.09
2023-04-14T09:04:00.031Z,87.30
2023-04-14T09:04:59.716Z,87.67
2023-04-14T09:05:59.539Z,87.67
2023-04-14T09:06:59.489Z,87.26
2023-04-14T09:07:59.479Z,86.40
2023-04-14T09:08:59.454Z,85.88
2023-04-14T09:09:59.456Z,85.16
2023-04-14T09:10:59.419Z,85.16
2023-04-14T09:11:59.411Z,85.36
2023-04-14T09:12:59.425Z,85.63
2023-04-14T09:13:59.715Z,85.63
2023-04-14T09:14:59.397Z,85.84
2023-04-14T09:15:59.358Z,85.84
2023-04-14T09:16:59.410Z,85.53
2023-04-14T09:17:59.412Z,84.40
2023-04-14T09:19:06.909Z,84.16
2023-04-14T09:20:34.537Z,84.05
2023-04-14T09:21:29.984Z,83.85
2023-04-14T09:22:00.269Z,83.85
2023-04-14T09:22:59.262Z,84.42
2023-04-14T09:23:59.472Z,84.84
2023-04-14T09:24:59.253Z,83.81
2023-04-14T09:25:59.242Z,83.09
2023-04-14T09:26:59.196Z,83.29
2023-04-14T09:27:59.197Z,84.12
2023-04-14T09:28:59.379Z,83.77
2023-04-14T09:29:59.190Z,83.46
2023-04-14T09:30:59.219Z,83.26
2023-04-14T09:31:59.142Z,83.26
2023-04-14T09:32:59.165Z,83.36
2023-04-14T09:33:59.180Z,83.15
2023-04-14T09:34:59.090Z,82.81
2023-04-14T09:35:59.103Z,82.70
2023-04-14T09:36:59.069Z,82.70
2023-04-14T09:37:59.065Z,82.60
2023-04-14T09:38:59.036Z,81.88
2023-04-14T09:39:59.049Z,80.76
2023-04-14T09:40:59.036Z,79.80
2023-04-14T09:41:59.032Z,79.38
2023-04-14T09:42:58.981Z,80.31
2023-04-14T09:43:59.218Z,81.95
2023-04-14T09:44:59.049Z,81.40
2023-04-14T09:45:59.000Z,80.27
2023-04-14T09:46:58.947Z,79.55
2023-04-14T09:47:58.935Z,81.50
2023-04-14T09:48:58.912Z,81.60
2023-04-14T09:49:58.889Z,81.26
2023-04-14T09:50:58.896Z,80.33
2023-04-14T09:51:58.867Z,79.11
2023-04-14T09:52:58.852Z,78.70
2023-04-14T09:53:58.859Z,79.82
2023-04-14T09:54:58.830Z,79.99
2023-04-14T09:55:58.829Z,79.99
2023-04-14T09:56:58.793Z,80.30
2023-04-14T09:57:58.797Z,78.83
2023-04-14T09:58:58.869Z,77.50
2023-04-14T09:59:58.742Z,77.60
2023-04-14T10:00:58.782Z,78.42
2023-04-14T10:01:58.868Z,79.00
2023-04-14T10:02:58.808Z,78.59
2023-04-14T10:03:58.702Z,77.46
2023-04-14T10:04:58.698Z,76.23
2023-04-14T10:05:58.700Z,76.03
2023-04-14T10:06:58.660Z,76.23
2023-04-14T10:07:58.649Z,75.38
2023-04-14T10:08:59.184Z,74.66
2023-04-14T10:09:58.622Z,74.05
2023-04-14T10:10:58.612Z,73.64
2023-04-14T10:11:58.586Z,74.05
2023-04-14T10:12:58.585Z,74.15
2023-04-14T10:13:58.580Z,74.15
2023-04-14T10:14:58.548Z,75.59
2023-04-14T10:15:58.582Z,75.65
2023-04-14T10:16:58.545Z,75.55
2023-04-14T10:17:58.537Z,75.75
2023-04-14T10:18:58.721Z,75.65
2023-04-14T10:19:58.503Z,74.90
2023-04-14T10:20:58.498Z,74.59
2023-04-14T10:21:58.456Z,73.98
2023-04-14T10:22:58.457Z,72.55
2023-04-14T10:23:58.576Z,72.45
2023-04-14T10:24:58.424Z,72.24
2023-04-14T10:25:58.426Z,70.40
2023-04-14T10:26:58.398Z,70.20
2023-04-14T10:27:58.378Z,70.81
2023-04-14T10:28:58.564Z,71.19
2023-04-14T10:29:58.349Z,72.82
2023-04-14T10:30:58.360Z,72.41
2023-04-14T10:31:58.483Z,72.11
2023-04-14T10:32:58.388Z,72.62
2023-04-14T10:33:58.319Z,71.46
2023-04-14T10:34:58.292Z,72.07
2023-04-14T10:35:58.293Z,70.75
2023-04-14T10:36:58.267Z,70.44
2023-04-14T10:37:58.249Z,70.81
2023-04-14T10:38:58.344Z,68.98
2023-04-14T10:39:58.230Z,69.08
2023-04-14T10:41:05.360Z,69.29
2023-04-14T10:41:58.194Z,69.59
2023-04-14T10:42:58.187Z,69.29
2023-04-14T10:43:58.184Z,67.76
2023-04-14T10:44:58.162Z,66.83
2023-04-14T10:45:58.192Z,67.11
2023-04-14T10:46:58.179Z,68.33
2023-04-14T10:47:58.198Z,69.35
2023-04-14T10:48:58.112Z,67.59
2023-04-14T10:49:58.096Z,63.10
2023-04-14T10:50:58.073Z,64.84
2023-04-14T10:51:58.082Z,65.45
2023-04-14T10:52:58.077Z,63.71
2023-04-14T10:53:58.036Z,61.16
2023-04-14T10:54:58.036Z,61.88
2023-04-14T10:55:58.018Z,62.39
2023-04-14T10:56:58.021Z,61.68
2023-04-14T10:57:57.981Z,61.75
2023-04-14T10:58:58.184Z,62.66
2023-04-14T10:59:57.953Z,62.36
2023-04-14T11:00:57.968Z,64.40
2023-04-14T11:01:57.967Z,63.79
2023-04-14T11:02:58.087Z,63.58
2023-04-14T11:03:58.058Z,61.93
2023-04-14T11:04:57.899Z,60.30
2023-04-14T11:05:57.877Z,57.65
2023-04-14T11:06:57.885Z,57.06
2023-04-14T11:07:59.905Z,58.18
2023-04-14T11:08:57.835Z,62.56
2023-04-14T11:09:57.823Z,63.76
2023-04-14T11:10:57.817Z,61.61
2023-04-14T11:11:57.833Z,62.54
2023-04-14T11:12:57.797Z,64.06
2023-04-14T11:13:57.801Z,61.52
2023-04-14T11:14:57.775Z,60.57
2023-04-14T11:15:57.747Z,61.08
2023-04-14T11:17:03.707Z,60.88
2023-04-14T11:17:58.743Z,60.57
2023-04-14T11:18:57.720Z,60.06
2023-04-14T11:19:57.685Z,59.25
2023-04-14T11:20:57.676Z,59.45
2023-04-14T11:21:57.722Z,59.25
2023-04-14T11:22:57.669Z,59.86
2023-04-14T11:23:57.642Z,60.44
2023-04-14T11:24:57.625Z,60.95
2023-04-14T11:25:57.633Z,61.56
2023-04-14T11:26:57.615Z,61.87
2023-04-14T11:27:57.585Z,59.53
2023-04-14T11:28:57.564Z,56.47
2023-04-14T11:29:57.554Z,53.93
2023-04-14T11:30:57.531Z,55.02
2023-04-14T11:31:57.561Z,53.70
2023-04-14T11:32:57.631Z,52.08
2023-04-14T11:33:57.651Z,53.39
2023-04-14T11:34:57.511Z,52.98
2023-04-14T11:35:57.481Z,51.77
2023-04-14T11:36:57.596Z,50.95
2023-04-14T11:37:57.442Z,53.29
2023-04-14T11:38:57.436Z,55.73
2023-04-14T11:39:57.412Z,57.03
2023-04-14T11:40:57.420Z,56.82
2023-04-14T11:41:57.422Z,56.32
2023-04-14T11:42:57.385Z,55.68
2023-04-14T11:43:57.369Z,53.55
2023-04-14T11:44:57.352Z,54.46
2023-04-14T11:45:57.379Z,55.58
2023-04-14T11:46:57.343Z,55.48
2023-04-14T11:47:57.376Z,54.44
2023-04-14T11:48:57.300Z,55.66
2023-04-14T11:49:57.292Z,56.16
2023-04-14T11:50:57.273Z,56.47
2023-04-14T11:51:57.259Z,56.65
2023-04-14T11:52:57.296Z,54.00
2023-04-14T11:53:57.221Z,53.70
2023-04-14T11:54:57.243Z,53.91
2023-04-14T11:55:57.203Z,54.31
2023-04-14T11:56:57.201Z,54.41
2023-04-14T11:57:57.289Z,53.80
2023-04-14T11:58:57.168Z,53.91
2023-04-14T11:59:57.145Z,54.28
2023-04-14T12:00:57.136Z,51.44
2023-04-14T12:01:57.160Z,52.25
2023-04-14T12:02:57.321Z,50.53
2023-04-14T12:03:57.258Z,52.97
2023-04-14T12:04:57.399Z,53.27
2023-04-14T12:05:57.076Z,54.18
2023-04-14T12:06:57.052Z,53.98
2023-04-14T12:07:57.070Z,52.73
2023-04-14T12:08:57.043Z,52.23
2023-04-14T12:09:57.020Z,52.53
2023-04-14T12:10:56.996Z,52.64
2023-04-14T12:11:56.992Z,52.33
2023-04-14T12:12:56.994Z,53.45
2023-04-14T12:13:57.000Z,54.18
2023-04-14T12:14:56.950Z,52.44
2023-04-14T12:15:56.954Z,48.10
2023-04-14T12:16:56.930Z,57.50
2023-04-14T12:17:57.118Z,60.95
2023-04-14T12:18:56.903Z,55.68
2023-04-14T12:19:56.878Z,54.84
2023-04-14T12:20:56.914Z,58.22
2023-04-14T12:21:56.879Z,59.63
2023-04-14T12:22:56.861Z,54.36
2023-04-14T12:23:56.822Z,60.21
2023-04-14T12:24:56.811Z,52.51
2023-04-14T12:25:56.792Z,56.54
2023-04-14T12:26:56.790Z,49.57
2023-04-14T12:27:57.379Z,48.55
2023-04-14T12:28:56.752Z,50.08
2023-04-14T12:29:56.728Z,51.12
2023-04-14T12:30:56.729Z,50.81
2023-04-14T12:31:56.786Z,55.50
2023-04-14T12:32:56.765Z,57.43
2023-04-14T12:33:56.874Z,57.12
2023-04-14T12:34:56.688Z,58.85
2023-04-14T12:35:56.660Z,57.76
2023-04-14T12:36:56.656Z,59.89
2023-04-14T12:37:56.649Z,61.93
2023-04-14T12:38:56.674Z,62.33
2023-04-14T12:39:56.627Z,58.98
2023-04-14T12:40:56.607Z,58.78
2023-04-14T12:41:56.570Z,56.52
2023-04-14T12:42:56.580Z,56.52
2023-04-14T12:43:56.542Z,56.09
2023-04-14T12:44:56.559Z,58.92
2023-04-14T12:45:56.528Z,52.84
2023-04-14T12:46:56.593Z,53.37
2023-04-14T12:47:56.701Z,52.05
2023-04-14T12:48:56.490Z,56.54
2023-04-14T12:49:56.513Z,60.30
2023-04-14T12:50:56.452Z,53.70
2023-04-14T12:51:56.466Z,53.22